Flight Track Log - Related Links

Times and Time Zones

All times are in EDT time to prevent confusion due to time zone crossing. See the AJT744 flight status page for this flight to view local times or setup timezone preferences in your user account.

Time Position Orientation Groundspeed Altitude Reporting Facility
EDT Latitude Longitude Course Direction KTS MPH feet Rate Location/Type
Fri 08:19:18 AM 23.5042 -83.3244 55° Northeast 468 539 36,900  Level Miami Center
Fri 08:20:18 AM 23.5781 -83.2083 65° Northeast 468 539 36,900 50 Level Miami Center
Fri 08:21:18 AM 23.6517 -83.0942 55° Northeast 455 524 37,000 50 Climbing Miami Center
Fri 08:22:18 AM 23.7189 -82.9819 57° Northeast 448 516 37,000  Level Miami Center
Fri 08:23:18 AM 23.7861 -82.8694 57° Northeast 443 510 37,000 -50 Level Miami Center
Fri 08:24:18 AM 23.8531 -82.7592 56° Northeast 443 510 36,900  Descending Miami Center
Fri 08:25:18 AM 23.9181 -82.6442 58° Northeast 443 510 37,000  Climbing Miami Center
Fri 08:26:18 AM 23.9869 -82.5361 55° Northeast 443 510 36,900 -450 Descending Miami Center
Fri 08:27:18 AM 24.0719 -82.4397 46° Northeast 438 504 36,100 -450 Descending Miami Center
Fri 08:28:18 AM 24.1611 -82.3483 43° Northeast 438 504 36,000 -50 Descending Miami Center
Fri 08:29:18 AM 24.2497 -82.2611 42° Northeast 426 490 36,000  Level Miami Center
Fri 08:30:18 AM 24.3389 -82.1669 44° Northeast 431 496 36,000  Level Miami Center
Fri 08:31:18 AM 24.4256 -82.0772 43° Northeast 431 496 36,000 -100 Level Miami Center
Fri 08:32:18 AM 24.5164 -81.9850 43° Northeast 431 496 35,800 -1,350 Descending Miami Center
Fri 08:33:18 AM 24.6072 -81.8931 43° Northeast 431 496 33,300 -2,650 Descending Miami Center
Fri 08:34:18 AM 24.7000 -81.8053 41° Northeast 431 496 30,500 -2,550 Descending Miami Center
Fri 08:35:18 AM 24.7972 -81.7039 43° Northeast 436 502 28,200 -2,200 Descending Miami Center
Fri 08:36:18 AM 24.8775 -81.6133 46° Northeast 424 488 26,100 -2,200 Descending Miami Center
Fri 08:37:18 AM 24.9508 -81.5383 43° Northeast 399 459 23,800 -2,350 Descending Miami Center
Fri 08:38:18 AM 25.0308 -81.4564 43° Northeast 392 451 21,400 -2,150 Descending Miami Center
Fri 08:39:18 AM 25.1106 -81.3747 43° Northeast 392 451 19,500 -1,950 Descending Miami Center
Fri 08:40:18 AM 25.1903 -81.2950 42° Northeast 386 444 17,500 -2,000 Descending Miami Center
Fri 08:41:18 AM 25.2678 -81.2150 43° Northeast 381 438 15,500 -1,950 Descending Miami Center
Fri 08:42:18 AM 25.3497 -81.1283 44° Northeast 381 438 13,600 -1,963 Descending Miami Center
Fri 08:43:05 AM 25.4036 -81.0750 42° Northeast 359 413 12,000 -1,875 Descending Miami Center
Fri 08:43:54 AM 25.4617 -81.0106 45° Northeast 352 405 10,600 -1,096 Descending Miami Center
Fri 08:44:49 AM 25.5219 -80.9458 44° Northeast 301 346 10,100 -590 Descending Miami Center
Fri 08:45:56 AM 25.5700 -80.8667 56° Northeast 277 319 9,400 -1,078 Descending Miami Center
Fri 08:46:57 AM 25.6119 -80.7922 58° Northeast 288 331 7,800 -1,426 Descending Miami Center
Fri 08:47:58 AM 25.6578 -80.7153 57° Northeast 282 325 6,500 -1,345 Descending Miami Center
Fri 08:48:53 AM 25.6950 -80.6519 57° Northeast 276 318 5,200 -1,309 Descending Miami Center
Fri 08:49:48 AM 25.7342 -80.5839 57° Northeast 272 313 4,100 -988 Descending Miami Center
Fri 08:50:18 AM 25.7558 -80.5500 55° Northeast 269 310 3,800 -740 Descending Miami Center
Fri 08:51:01 AM 25.7739 -80.5067 65° Northeast 232 267 3,200 -1,029 Descending Miami Center
Fri 08:52:03 AM 25.7775 -80.4378 87° East 208 239 2,000 -984 Descending Miami Center
Fri 08:53:03 AM 25.7789 -80.3825 88° East 177 204 1,200 -793 Descending Miami Center
Fri 08:54:04 AM 25.7822 -80.3339 86° East 138 159 400 -787 Descending Miami Center
Fri 08:56:00 AM 25.7833 -80.2833 90° East  Level FlightAware Approximate

Login

Don't have an account? Register now (free) for customized features, flight alerts, and more!